Historyczne dane pomiarowe

Dodano dane terminowe – wersja testowa.

Dane z okresu 1951-2019

Wersja bazy: 1.34 [2019-03-16, lista zmian], aktualizacja planowana na 2019-04-15

Dane meteo z obszaru Polski uzyskane na podstawie danych udostępnionych przez Instytut Meteorologii i Gospodarki Wodnej – Państwowy Instytut Badawczy.

 

Wybierz Datę:    

       

TemperaturaWilgotnośćWiatrCiśnienieOpadyŚniegCzas trwania zjawisk
 Stacja t tx tn tng RH VA  wxwx mslp ppp RRR   cm mm wxwxwxwxwxwxwx
1987-08-14 15.6 21.4 12.4 8.9 86.3- 8.0 1.7---- 3.6------------
1987-08-13 14.1 19.6 11.1 7.3 80.0- 5.3 0.3---- 2.2------------
1987-08-12 12.5 18.5 6.5 3.9 76.3- 3.0 0.7---- 2.1------------
1987-08-11 12.8 17.3 10.8 9.7 81.0- 6.3 2.3---- 0.4------------
1987-08-10 13.5 15.9 11.6 10.3 90.3- 7.3 0.3---- 3.6------------
1987-08-09 16.0 22.1 10.6 6.2 77.0- 4.7 0.7---- 9.6------------
1987-08-08 14.6 20.6 9.3 7.2 71.8- 5.0 2.3---- 0.0------------
1987-08-07 12.0 18.9 5.0 2.5 72.5- 3.0 0.3---- 0.0------------
1987-08-06 9.5 12.7 7.3 6.1 89.3- 7.0 3.7---- 8.3------------
1987-08-05 10.4 14.5 8.0 6.9 93.5- 4.3 3.3---- 2.7------------
1987-08-04 12.8 17.7 11.0 10.6 83.8- 5.3 1.7---- 1.3------------
1987-08-03 13.6 18.9 8.9 6.9 80.8- 4.3 0.7---- 2.8------------
1987-08-02 12.4 17.1 10.4 9.6 85.5- 6.0 3.0---- 2.8------------
1987-08-01 14.3 17.6 12.9 12.9 89.8- 6.0 2.3---- 19.3------------
1987-07-31 14.8 17.3 12.0 12.2 80.0- 6.3 2.7---- 0.0------------
1987-07-30 17.9 24.3 14.7 12.9 76.8- 5.3 2.0---- 12.5------------
1987-07-29 14.0 18.3 10.4 9.4 83.8- 3.3 0.7---- 0.0------------
1987-07-28 12.4 14.6 11.1 11.9 89.8- 7.7 1.7---- 0.3------------
1987-07-27 12.4 17.1 7.9 6.0 77.8- 6.7 5.0---- 3.3------------
1987-07-26 12.9 16.3 7.9 6.5 75.5- 3.0 2.7---- 0.0------------
1987-07-25 14.0 20.1 12.0 10.5 86.5- 5.7 1.0---- 1.2------------
1987-07-24 18.7 23.3 14.0 11.1 75.8- 1.3 1.3---- 0.0------------
1987-07-23 19.2 23.5 14.1 10.4 76.8- 6.3 0.3---- 0.4------------
1987-07-22 18.0 24.1 10.0 7.7 77.5- 1.7 0.7---- 0.0------------
1987-07-21 15.9 18.1 14.1 10.9 87.0- 5.7 1.0---- 0.4------------
1987-07-20 17.5 23.9 13.7 13.9 83.5- 4.0 1.0---- 0.0------------
1987-07-19 17.0 21.1 13.7 13.9 89.8- 7.0 1.0---- 9.8------------
1987-07-18 18.0 26.1 16.1 15.4 84.5- 7.0 0.7---- 11.5------------
1987-07-17 22.8 28.1 16.1 15.4 72.5- 5.0 2.0---- 1.8------------
1987-07-16 20.6 26.6 14.5 13.4 67.0- 6.7 1.0---- 0.0------------
1987-07-15 18.8 25.1 11.7 10.4 56.0- 1.3 5.0---- 0.0------------
1987-07-14 16.2 22.1 7.1 3.6 61.0- 0.7 1.0---- 0.0------------
1987-07-13 14.9 20.3 10.6 7.9 70.5- 3.0 2.0---- 0.0------------
1987-07-12 19.8 25.1 15.9 12.9 66.0- 3.7 1.3---- 1.0------------
1987-07-11 16.6 25.6 9.8 6.9 76.3- 4.0 1.7---- 0.0------------
1987-07-10 14.4 18.7 8.9 8.4 61.8- 3.3 1.7---- 0.0------------
1987-07-09 15.5 20.1 13.4 13.6 79.5- 6.0 1.0---- 0.0------------
1987-07-08 18.7 24.1 16.1 11.5 81.3- 7.3 1.0---- 5.2------------
1987-07-07 21.9 28.1 12.4 7.7 57.3- 0.0 0.7---- 0.0------------
1987-07-06 19.5 24.7 9.9 5.4 57.0- 0.7 1.0---- 0.0------------
1987-07-05 16.6 22.3 8.9 4.5 61.0- 1.3 1.0---- 0.0------------
1987-07-04 18.4 21.6 15.4 12.4 60.0- 4.3 2.0---- 0.0------------
1987-07-03 18.0 24.1 13.6 10.9 69.0- 6.0 1.0---- 0.0------------
1987-07-02 18.8 22.8 12.8 12.3 75.0- 1.3 1.0---- 0.0------------
1987-07-01 22.5 30.3 20.2 15.9 85.5- 5.3 3.0---- 11.5------------
1987-06-30 24.4 30.2 17.4 12.4 71.8- 0.0 1.7---- 0.0------------
1987-06-29 21.2 28.1 13.9 9.9 80.0- 1.0 0.7---- 0.0------------
1987-06-28 17.8 22.4 14.1 8.4 82.3- 1.7 0.3---- 0.2------------
1987-06-27 17.7 21.2 13.7 12.1 73.8- 1.3 1.0---- 0.0------------
1987-06-26 16.3 21.5 9.7 5.4 72.0- 2.0 1.3---- 0.3------------
1987-06-25 12.8 16.5 10.5 9.9 82.5- 7.7 0.7---- 0.8------------
1987-06-24 13.4 17.5 9.2 5.9 86.0- 5.7 1.7---- 4.7------------
1987-06-23 14.1 18.1 10.6 5.4 83.5- 5.0 2.0---- 0.3------------
1987-06-22 14.2 18.4 10.3 9.9 80.3- 5.0 0.7---- 0.0------------
1987-06-21 14.8 18.8 13.1 9.4 83.5- 5.0 1.3---- 0.8------------
1987-06-20 14.7 20.8 8.4 4.0 71.5- 3.7 2.3---- 0.6------------
1987-06-19 12.4 19.0 7.4 6.4 73.3- 4.0 0.7---- 0.0------------
1987-06-18 9.6 14.2 7.2 3.2 88.5- 6.0 5.0---- 6.4------------
1987-06-17 11.9 15.5 8.7 7.1 63.3- 4.0 3.7---- 0.0------------
1987-06-16 9.7 16.1 7.5 7.4 88.8- 7.3 3.3---- 2.0------------
405.6 ms

 

Źródłem pochodzenia danych jest Instytut Meteorologii i Gospodarki Wodnej – Państwowy Instytut Badawczy. Dane Instytutu Meteorologii i Gospodarki Wodnej – Państwowego Instytutu Badawczego zostały przetworzone.

Dane źródłowe można odnaleźć na stronie https://dane.imgw.pl